Don's Testing Zone


Current Conditions
weather data
source:

National Weather Service
Clear Russellville, AR
Clear, 54°F
Sunday, December 10, 2017 5:53 PM CST
Temperature: 54°F/12°C
Humidity: 32%
Barometer: 30.17in/1021.6mb Barometer Steady
Wind: W at 5mph/7kmh
View other cities:
Searcy | Little Rock | Hot Springs | Russellville | More...
Astronomical Conditions (Clear Sky Clock)
Searcy Clear Sky Clock
    

Radar Images

NWS
    Wx Underground

NWS METAR weather data

ADDS - METARS form results





Aviation Digital Data Service (ADDS) Output produced by METARs form (0014 UTC 11 December 2017) found at http://www.aviationweather.gov/adds/metars/ 

KRUE 102353Z AUTO 30004KT 10SM CLR 12/M04 A3017 RMK AO2 SLP216 T01171039 1016720106 53007

KRUE 102253Z AUTO 29006KT 10SM CLR 14/M03 A3016 RMK AO2 SLP211 T01391028

KRUE 102153Z AUTO 28010KT 10SM CLR 17/M04 A3016 RMK AO2 SLP209 T01671039

KRUE 102053Z AUTO 29008G18KT 10SM CLR 17/M03 A3015 RMK AO2 SLP207 T0167103356025

KRUE 101953Z AUTO 32007KT 10SM CLR 14/M03 A3016 RMK AO2 SLP210 T01441028

KRUE 101853Z AUTO 32004KT 10SM CLR 13/M02 A3018 RMK AO2 SLP218 T01281022

KRUE 101753Z AUTO 30003KT 10SM CLR 11/M03 A3022 RMK AO2 SLP233 T01061033 1010621061 58022

KRUE 101653Z AUTO 28004KT 10SM CLR 08/M03 A3026 RMK AO2 SLP245 T00781033

KRUE 101553Z AUTO 00000KT 10SM CLR 04/M02 A3028 RMK AO2 SLP254 T00391022

KRUE 101453Z AUTO 00000KT 10SM CLR 00/M03 A3029 RMK AO2 SLP257 T00001028 56005

KRUE 101353Z AUTO 00000KT 10SM CLR M06/M06 A3029 RMK AO2 SLP258 T10561061

KRUE 101253Z AUTO 00000KT 10SM CLR M06/M07 A3030 RMK AO2 SLP259 T10611067

KRUE 101153Z AUTO 00000KT 10SM CLR M06/M07 A3030 RMK AO2 SLP262 T10561067 1102821056 53001

KRUE 101053Z AUTO 00000KT 10SM CLR M05/M06 A3029 RMK AO2 SLP257 T10501061

KRUE 100953Z AUTO 00000KT 10SM CLR M04/M06 A3030 RMK AO2 SLP258 T10441061

KRUE 100853Z AUTO 00000KT 10SM CLR M04/M06 A3030 RMK AO2 SLP259 T10441056 53005

KRUE 100753Z AUTO 00000KT 10SM CLR M04/M06 A3029 RMK AO2 SLP257 T10391056

KRUE 100653Z AUTO 00000KT 10SM CLR M03/M06 A3029 RMK AO2 SLP255 T10331056

KRUE 100553Z AUTO 00000KT 10SM CLR M03/M06 A3029 RMK AO2 SLP255 T10281056 1006721033 401171072 51007

KRUE 100453Z AUTO 00000KT 10SM CLR M02/M05 A3028 RMK AO2 SLP253 T10171050

KRUE 100353Z AUTO 00000KT 10SM CLR M02/M05 A3028 RMK AO2 SLP252 T10171050

KRUE 100253Z AUTO 33004KT 10SM CLR M01/M05 A3027 RMK AO2 SLP249 T10061050 52020

KRUE 100153Z AUTO 30006KT 10SM CLR 06/M06 A3025 RMK AO2 SLP242 T00561056

KRUE 100053Z AUTO 31004KT 10SM CLR 05/M06 A3023 RMK AO2 SLP235 T00501061